sensor_id;sensor_type;location;lat;lon;timestamp;P1;durP1;ratioP1;P2;durP2;ratioP2
14923;SDS011;7554;43.600;1.480;2023-07-29T00:02:16;7.93;;;4.20;;
14923;SDS011;7554;43.600;1.480;2023-07-29T00:04:43;7.27;;;4.03;;
14923;SDS011;7554;43.600;1.480;2023-07-29T00:07:11;5.30;;;4.17;;
14923;SDS011;7554;43.600;1.480;2023-07-29T00:09:38;5.10;;;4.03;;
14923;SDS011;7554;43.600;1.480;2023-07-29T00:12:07;4.63;;;4.10;;
14923;SDS011;7554;43.600;1.480;2023-07-29T00:14:35;5.43;;;4.07;;
14923;SDS011;7554;43.600;1.480;2023-07-29T00:17:02;5.63;;;4.80;;
14923;SDS011;7554;43.600;1.480;2023-07-29T00:19:30;8.13;;;7.17;;
14923;SDS011;7554;43.600;1.480;2023-07-29T00:21:58;4.47;;;4.07;;
14923;SDS011;7554;43.600;1.480;2023-07-29T00:24:26;5.57;;;4.30;;
14923;SDS011;7554;43.600;1.480;2023-07-29T00:26:53;4.60;;;4.20;;
14923;SDS011;7554;43.600;1.480;2023-07-29T00:29:22;5.43;;;4.37;;
14923;SDS011;7554;43.600;1.480;2023-07-29T00:31:50;8.60;;;4.00;;
14923;SDS011;7554;43.600;1.480;2023-07-29T00:34:17;4.53;;;4.03;;
14923;SDS011;7554;43.600;1.480;2023-07-29T00:36:44;5.63;;;4.27;;
14923;SDS011;7554;43.600;1.480;2023-07-29T00:39:12;5.07;;;3.90;;
14923;SDS011;7554;43.600;1.480;2023-07-29T00:41:39;4.30;;;3.90;;
14923;SDS011;7554;43.600;1.480;2023-07-29T00:44:07;4.27;;;3.87;;
14923;SDS011;7554;43.600;1.480;2023-07-29T00:46:36;7.53;;;4.33;;
14923;SDS011;7554;43.600;1.480;2023-07-29T00:49:06;4.83;;;4.20;;
14923;SDS011;7554;43.600;1.480;2023-07-29T00:51:34;8.50;;;4.50;;
14923;SDS011;7554;43.600;1.480;2023-07-29T00:54:02;4.97;;;4.00;;
14923;SDS011;7554;43.600;1.480;2023-07-29T00:56:29;5.50;;;4.23;;
14923;SDS011;7554;43.600;1.480;2023-07-29T00:58:57;5.17;;;3.90;;
14923;SDS011;7554;43.600;1.480;2023-07-29T01:01:27;5.27;;;4.10;;
14923;SDS011;7554;43.600;1.480;2023-07-29T01:03:56;7.27;;;4.67;;
14923;SDS011;7554;43.600;1.480;2023-07-29T01:06:26;5.97;;;4.13;;
14923;SDS011;7554;43.600;1.480;2023-07-29T01:08:59;4.97;;;4.47;;
14923;SDS011;7554;43.600;1.480;2023-07-29T01:11:33;4.33;;;3.93;;
14923;SDS011;7554;43.600;1.480;2023-07-29T01:14:09;4.77;;;4.17;;
14923;SDS011;7554;43.600;1.480;2023-07-29T01:16:46;4.40;;;4.00;;
14923;SDS011;7554;43.600;1.480;2023-07-29T01:19:22;5.87;;;4.10;;
14923;SDS011;7554;43.600;1.480;2023-07-29T01:22:06;6.80;;;4.63;;
14923;SDS011;7554;43.600;1.480;2023-07-29T01:24:35;5.73;;;3.93;;
14923;SDS011;7554;43.600;1.480;2023-07-29T01:27:03;4.87;;;4.00;;
14923;SDS011;7554;43.600;1.480;2023-07-29T01:29:31;4.50;;;4.03;;
14923;SDS011;7554;43.600;1.480;2023-07-29T01:32:04;8.43;;;4.30;;
14923;SDS011;7554;43.600;1.480;2023-07-29T01:34:38;5.90;;;4.40;;
14923;SDS011;7554;43.600;1.480;2023-07-29T01:37:12;4.77;;;4.20;;
14923;SDS011;7554;43.600;1.480;2023-07-29T01:39:47;6.43;;;4.03;;
14923;SDS011;7554;43.600;1.480;2023-07-29T01:42:17;8.30;;;5.13;;
14923;SDS011;7554;43.600;1.480;2023-07-29T01:44:45;5.40;;;4.00;;
14923;SDS011;7554;43.600;1.480;2023-07-29T01:47:12;4.97;;;4.40;;
14923;SDS011;7554;43.600;1.480;2023-07-29T01:49:39;4.77;;;4.27;;
14923;SDS011;7554;43.600;1.480;2023-07-29T01:52:07;5.97;;;4.13;;
14923;SDS011;7554;43.600;1.480;2023-07-29T01:54:34;4.93;;;4.43;;
14923;SDS011;7554;43.600;1.480;2023-07-29T01:57:03;5.27;;;4.53;;
14923;SDS011;7554;43.600;1.480;2023-07-29T01:59:30;5.17;;;4.10;;
14923;SDS011;7554;43.600;1.480;2023-07-29T02:01:58;6.47;;;4.47;;
14923;SDS011;7554;43.600;1.480;2023-07-29T02:04:25;5.87;;;4.40;;
14923;SDS011;7554;43.600;1.480;2023-07-29T02:06:52;5.40;;;4.10;;
14923;SDS011;7554;43.600;1.480;2023-07-29T02:09:20;5.70;;;4.57;;
14923;SDS011;7554;43.600;1.480;2023-07-29T02:11:47;6.47;;;4.20;;
14923;SDS011;7554;43.600;1.480;2023-07-29T02:14:16;5.10;;;4.13;;
14923;SDS011;7554;43.600;1.480;2023-07-29T02:16:43;4.93;;;4.37;;
14923;SDS011;7554;43.600;1.480;2023-07-29T02:19:11;5.50;;;4.03;;
14923;SDS011;7554;43.600;1.480;2023-07-29T02:21:38;5.87;;;4.50;;
14923;SDS011;7554;43.600;1.480;2023-07-29T02:24:05;4.73;;;4.33;;
14923;SDS011;7554;43.600;1.480;2023-07-29T02:26:33;6.93;;;4.57;;
14923;SDS011;7554;43.600;1.480;2023-07-29T02:29:00;5.07;;;4.27;;
14923;SDS011;7554;43.600;1.480;2023-07-29T02:31:29;5.57;;;4.50;;
14923;SDS011;7554;43.600;1.480;2023-07-29T02:33:56;5.07;;;4.40;;
14923;SDS011;7554;43.600;1.480;2023-07-29T02:36:23;7.03;;;4.17;;
14923;SDS011;7554;43.600;1.480;2023-07-29T02:38:51;5.37;;;4.40;;
14923;SDS011;7554;43.600;1.480;2023-07-29T02:41:18;6.23;;;4.57;;
14923;SDS011;7554;43.600;1.480;2023-07-29T02:43:48;5.00;;;4.50;;
14923;SDS011;7554;43.600;1.480;2023-07-29T02:46:15;5.63;;;4.37;;
14923;SDS011;7554;43.600;1.480;2023-07-29T02:48:45;5.90;;;4.57;;
14923;SDS011;7554;43.600;1.480;2023-07-29T02:51:12;6.43;;;5.10;;
14923;SDS011;7554;43.600;1.480;2023-07-29T02:53:39;7.43;;;4.43;;
14923;SDS011;7554;43.600;1.480;2023-07-29T02:56:07;7.33;;;4.30;;
14923;SDS011;7554;43.600;1.480;2023-07-29T02:58:35;7.03;;;4.60;;
14923;SDS011;7554;43.600;1.480;2023-07-29T03:01:03;5.53;;;4.30;;
14923;SDS011;7554;43.600;1.480;2023-07-29T03:03:32;5.53;;;4.33;;
14923;SDS011;7554;43.600;1.480;2023-07-29T03:06:01;4.50;;;4.00;;
14923;SDS011;7554;43.600;1.480;2023-07-29T03:08:29;5.63;;;4.27;;
14923;SDS011;7554;43.600;1.480;2023-07-29T03:10:57;6.27;;;4.60;;
14923;SDS011;7554;43.600;1.480;2023-07-29T03:13:25;6.13;;;4.57;;
14923;SDS011;7554;43.600;1.480;2023-07-29T03:15:52;4.90;;;4.40;;
14923;SDS011;7554;43.600;1.480;2023-07-29T03:18:20;6.57;;;4.57;;
14923;SDS011;7554;43.600;1.480;2023-07-29T03:20:48;6.03;;;4.07;;
14923;SDS011;7554;43.600;1.480;2023-07-29T03:23:17;6.83;;;4.40;;
14923;SDS011;7554;43.600;1.480;2023-07-29T03:25:47;7.07;;;4.40;;
14923;SDS011;7554;43.600;1.480;2023-07-29T03:28:16;4.93;;;4.17;;
14923;SDS011;7554;43.600;1.480;2023-07-29T03:30:43;5.20;;;4.70;;
14923;SDS011;7554;43.600;1.480;2023-07-29T03:33:11;5.63;;;4.40;;
14923;SDS011;7554;43.600;1.480;2023-07-29T03:35:38;5.20;;;4.20;;
14923;SDS011;7554;43.600;1.480;2023-07-29T03:38:05;4.93;;;3.90;;
14923;SDS011;7554;43.600;1.480;2023-07-29T03:40:34;5.27;;;4.83;;
14923;SDS011;7554;43.600;1.480;2023-07-29T03:43:01;6.20;;;4.60;;
14923;SDS011;7554;43.600;1.480;2023-07-29T03:45:28;7.17;;;3.80;;
14923;SDS011;7554;43.600;1.480;2023-07-29T03:47:56;4.80;;;4.30;;
14923;SDS011;7554;43.600;1.480;2023-07-29T03:50:23;5.40;;;4.33;;
14923;SDS011;7554;43.600;1.480;2023-07-29T03:52:50;7.17;;;4.60;;
14923;SDS011;7554;43.600;1.480;2023-07-29T03:55:18;6.00;;;4.60;;
14923;SDS011;7554;43.600;1.480;2023-07-29T03:57:47;6.10;;;4.60;;
14923;SDS011;7554;43.600;1.480;2023-07-29T04:00:14;4.50;;;4.10;;
14923;SDS011;7554;43.600;1.480;2023-07-29T04:02:42;5.03;;;4.53;;
14923;SDS011;7554;43.600;1.480;2023-07-29T04:05:10;8.43;;;4.97;;
14923;SDS011;7554;43.600;1.480;2023-07-29T04:07:38;5.00;;;4.60;;
14923;SDS011;7554;43.600;1.480;2023-07-29T04:10:06;5.67;;;5.00;;
14923;SDS011;7554;43.600;1.480;2023-07-29T04:12:34;11.43;;;7.77;;
14923;SDS011;7554;43.600;1.480;2023-07-29T04:15:03;33.70;;;19.87;;
14923;SDS011;7554;43.600;1.480;2023-07-29T04:17:31;21.23;;;14.07;;
14923;SDS011;7554;43.600;1.480;2023-07-29T04:19:58;25.13;;;16.23;;
14923;SDS011;7554;43.600;1.480;2023-07-29T04:22:25;52.83;;;32.83;;
14923;SDS011;7554;43.600;1.480;2023-07-29T04:24:52;53.83;;;34.23;;
14923;SDS011;7554;43.600;1.480;2023-07-29T04:27:20;37.27;;;22.93;;
14923;SDS011;7554;43.600;1.480;2023-07-29T04:29:47;28.63;;;17.70;;
14923;SDS011;7554;43.600;1.480;2023-07-29T04:32:16;17.20;;;11.10;;
14923;SDS011;7554;43.600;1.480;2023-07-29T04:34:43;10.87;;;8.43;;
14923;SDS011;7554;43.600;1.480;2023-07-29T04:37:11;11.20;;;7.13;;
14923;SDS011;7554;43.600;1.480;2023-07-29T04:39:38;7.70;;;5.70;;
14923;SDS011;7554;43.600;1.480;2023-07-29T04:42:06;5.80;;;4.70;;
14923;SDS011;7554;43.600;1.480;2023-07-29T04:44:33;8.00;;;4.97;;
14923;SDS011;7554;43.600;1.480;2023-07-29T04:47:00;5.87;;;4.83;;
14923;SDS011;7554;43.600;1.480;2023-07-29T04:49:29;5.63;;;4.77;;
14923;SDS011;7554;43.600;1.480;2023-07-29T04:51:56;4.87;;;4.37;;
14923;SDS011;7554;43.600;1.480;2023-07-29T04:54:24;6.67;;;4.90;;
14923;SDS011;7554;43.600;1.480;2023-07-29T04:56:51;4.83;;;4.37;;
14923;SDS011;7554;43.600;1.480;2023-07-29T04:59:19;5.53;;;4.43;;
14923;SDS011;7554;43.600;1.480;2023-07-29T05:01:46;9.07;;;4.57;;
14923;SDS011;7554;43.600;1.480;2023-07-29T05:04:13;6.67;;;4.93;;
14923;SDS011;7554;43.600;1.480;2023-07-29T05:06:42;5.47;;;4.30;;
14923;SDS011;7554;43.600;1.480;2023-07-29T05:09:12;5.60;;;4.57;;
14923;SDS011;7554;43.600;1.480;2023-07-29T05:11:40;7.53;;;5.13;;
14923;SDS011;7554;43.600;1.480;2023-07-29T05:14:09;5.50;;;4.80;;
14923;SDS011;7554;43.600;1.480;2023-07-29T05:16:36;4.80;;;4.40;;
14923;SDS011;7554;43.600;1.480;2023-07-29T05:19:03;7.27;;;4.67;;
14923;SDS011;7554;43.600;1.480;2023-07-29T05:21:31;4.93;;;4.27;;
14923;SDS011;7554;43.600;1.480;2023-07-29T05:24:00;6.03;;;4.73;;
14923;SDS011;7554;43.600;1.480;2023-07-29T05:26:27;8.67;;;4.30;;
14923;SDS011;7554;43.600;1.480;2023-07-29T05:28:54;5.20;;;4.40;;
14923;SDS011;7554;43.600;1.480;2023-07-29T05:31:22;5.53;;;4.10;;
14923;SDS011;7554;43.600;1.480;2023-07-29T05:33:49;4.80;;;4.40;;
14923;SDS011;7554;43.600;1.480;2023-07-29T05:36:16;4.40;;;4.00;;
14923;SDS011;7554;43.600;1.480;2023-07-29T05:38:43;7.37;;;4.57;;
14923;SDS011;7554;43.600;1.480;2023-07-29T05:41:12;5.57;;;4.27;;
14923;SDS011;7554;43.600;1.480;2023-07-29T05:43:39;6.05;;;4.03;;
14923;SDS011;7554;43.600;1.480;2023-07-29T05:46:08;4.65;;;3.70;;
14923;SDS011;7554;43.600;1.480;2023-07-29T05:48:36;8.25;;;4.70;;
14923;SDS011;7554;43.600;1.480;2023-07-29T05:51:03;4.90;;;4.30;;
14923;SDS011;7554;43.600;1.480;2023-07-29T05:53:31;4.63;;;4.03;;
14923;SDS011;7554;43.600;1.480;2023-07-29T05:55:58;6.18;;;4.03;;
14923;SDS011;7554;43.600;1.480;2023-07-29T05:58:27;5.18;;;4.00;;
14923;SDS011;7554;43.600;1.480;2023-07-29T06:00:56;5.00;;;4.28;;
14923;SDS011;7554;43.600;1.480;2023-07-29T06:03:23;6.13;;;4.30;;
14923;SDS011;7554;43.600;1.480;2023-07-29T06:05:51;5.57;;;4.22;;
14923;SDS011;7554;43.600;1.480;2023-07-29T06:08:18;5.53;;;4.40;;
14923;SDS011;7554;43.600;1.480;2023-07-29T06:10:45;6.43;;;4.32;;
14923;SDS011;7554;43.600;1.480;2023-07-29T06:13:13;5.78;;;4.20;;
14923;SDS011;7554;43.600;1.480;2023-07-29T06:15:41;7.03;;;4.70;;
14923;SDS011;7554;43.600;1.480;2023-07-29T06:18:09;4.45;;;4.03;;
14923;SDS011;7554;43.600;1.480;2023-07-29T06:20:36;5.30;;;4.40;;
14923;SDS011;7554;43.600;1.480;2023-07-29T06:23:04;6.13;;;4.60;;
14923;SDS011;7554;43.600;1.480;2023-07-29T06:25:31;4.60;;;4.20;;
14923;SDS011;7554;43.600;1.480;2023-07-29T06:27:58;5.47;;;4.20;;
14923;SDS011;7554;43.600;1.480;2023-07-29T06:30:25;4.65;;;4.13;;
14923;SDS011;7554;43.600;1.480;2023-07-29T06:32:54;5.20;;;3.78;;
14923;SDS011;7554;43.600;1.480;2023-07-29T06:35:21;5.47;;;4.78;;
14923;SDS011;7554;43.600;1.480;2023-07-29T06:37:49;5.55;;;4.65;;
14923;SDS011;7554;43.600;1.480;2023-07-29T06:40:16;5.75;;;4.50;;
14923;SDS011;7554;43.600;1.480;2023-07-29T06:42:44;6.30;;;4.25;;
14923;SDS011;7554;43.600;1.480;2023-07-29T06:45:11;5.13;;;4.10;;
14923;SDS011;7554;43.600;1.480;2023-07-29T06:47:38;4.38;;;3.97;;
14923;SDS011;7554;43.600;1.480;2023-07-29T06:50:07;4.22;;;3.80;;
14923;SDS011;7554;43.600;1.480;2023-07-29T06:52:35;4.35;;;3.92;;
14923;SDS011;7554;43.600;1.480;2023-07-29T06:55:03;4.30;;;3.90;;
14923;SDS011;7554;43.600;1.480;2023-07-29T06:57:31;7.47;;;3.90;;
14923;SDS011;7554;43.600;1.480;2023-07-29T06:59:58;4.85;;;3.75;;
14923;SDS011;7554;43.600;1.480;2023-07-29T07:02:26;7.03;;;3.90;;
14923;SDS011;7554;43.600;1.480;2023-07-29T07:04:53;5.63;;;4.30;;
14923;SDS011;7554;43.600;1.480;2023-07-29T07:07:22;5.93;;;4.50;;
14923;SDS011;7554;43.600;1.480;2023-07-29T07:09:49;6.68;;;4.63;;
14923;SDS011;7554;43.600;1.480;2023-07-29T07:12:16;7.00;;;4.10;;
14923;SDS011;7554;43.600;1.480;2023-07-29T07:14:44;5.53;;;3.97;;
14923;SDS011;7554;43.600;1.480;2023-07-29T07:17:11;6.40;;;4.10;;
14923;SDS011;7554;43.600;1.480;2023-07-29T07:19:38;6.50;;;4.47;;
14923;SDS011;7554;43.600;1.480;2023-07-29T07:22:06;6.60;;;4.38;;
14923;SDS011;7554;43.600;1.480;2023-07-29T07:24:34;5.85;;;3.78;;
14923;SDS011;7554;43.600;1.480;2023-07-29T07:27:02;5.45;;;3.80;;
14923;SDS011;7554;43.600;1.480;2023-07-29T07:29:29;5.57;;;4.20;;
14923;SDS011;7554;43.600;1.480;2023-07-29T07:31:57;5.45;;;4.57;;
14923;SDS011;7554;43.600;1.480;2023-07-29T07:34:25;6.65;;;4.60;;
14923;SDS011;7554;43.600;1.480;2023-07-29T07:36:52;5.38;;;4.45;;
14923;SDS011;7554;43.600;1.480;2023-07-29T07:39:19;5.30;;;3.83;;
14923;SDS011;7554;43.600;1.480;2023-07-29T07:41:48;6.70;;;3.92;;
14923;SDS011;7554;43.600;1.480;2023-07-29T07:44:15;5.68;;;3.92;;
14923;SDS011;7554;43.600;1.480;2023-07-29T07:46:44;5.75;;;3.58;;
14923;SDS011;7554;43.600;1.480;2023-07-29T07:49:13;3.55;;;3.25;;
14923;SDS011;7554;43.600;1.480;2023-07-29T07:51:41;3.70;;;3.30;;
14923;SDS011;7554;43.600;1.480;2023-07-29T07:54:10;5.00;;;3.70;;
14923;SDS011;7554;43.600;1.480;2023-07-29T07:56:37;3.50;;;3.20;;
14923;SDS011;7554;43.600;1.480;2023-07-29T07:59:06;4.25;;;3.40;;
14923;SDS011;7554;43.600;1.480;2023-07-29T08:01:34;3.85;;;2.95;;
14923;SDS011;7554;43.600;1.480;2023-07-29T08:04:02;3.60;;;3.30;;
14923;SDS011;7554;43.600;1.480;2023-07-29T08:06:29;5.57;;;3.42;;
14923;SDS011;7554;43.600;1.480;2023-07-29T08:08:57;4.43;;;3.67;;
14923;SDS011;7554;43.600;1.480;2023-07-29T08:11:24;3.92;;;3.50;;
14923;SDS011;7554;43.600;1.480;2023-07-29T08:13:52;4.88;;;3.30;;
14923;SDS011;7554;43.600;1.480;2023-07-29T08:16:21;5.57;;;3.42;;
14923;SDS011;7554;43.600;1.480;2023-07-29T08:18:48;5.68;;;3.65;;
14923;SDS011;7554;43.600;1.480;2023-07-29T08:21:15;4.60;;;3.50;;
14923;SDS011;7554;43.600;1.480;2023-07-29T08:23:42;4.88;;;3.63;;
14923;SDS011;7554;43.600;1.480;2023-07-29T08:26:10;3.90;;;3.50;;
14923;SDS011;7554;43.600;1.480;2023-07-29T08:28:38;3.67;;;3.20;;
14923;SDS011;7554;43.600;1.480;2023-07-29T08:31:06;4.57;;;3.00;;
14923;SDS011;7554;43.600;1.480;2023-07-29T08:33:34;4.20;;;3.00;;
14923;SDS011;7554;43.600;1.480;2023-07-29T08:36:02;3.40;;;2.85;;
14923;SDS011;7554;43.600;1.480;2023-07-29T08:38:29;4.25;;;3.17;;
14923;SDS011;7554;43.600;1.480;2023-07-29T08:40:58;3.17;;;2.88;;
14923;SDS011;7554;43.600;1.480;2023-07-29T08:43:31;5.75;;;3.25;;
14923;SDS011;7554;43.600;1.480;2023-07-29T08:45:59;3.42;;;3.08;;
14923;SDS011;7554;43.600;1.480;2023-07-29T08:48:29;4.88;;;3.17;;
14923;SDS011;7554;43.600;1.480;2023-07-29T08:51:04;3.80;;;3.00;;
14923;SDS011;7554;43.600;1.480;2023-07-29T08:53:34;3.25;;;2.80;;
14923;SDS011;7554;43.600;1.480;2023-07-29T08:56:02;5.10;;;3.00;;
14923;SDS011;7554;43.600;1.480;2023-07-29T08:58:30;3.38;;;2.75;;
14923;SDS011;7554;43.600;1.480;2023-07-29T09:00:58;3.83;;;3.22;;
14923;SDS011;7554;43.600;1.480;2023-07-29T09:03:26;5.20;;;3.17;;
14923;SDS011;7554;43.600;1.480;2023-07-29T09:05:54;3.67;;;3.30;;
14923;SDS011;7554;43.600;1.480;2023-07-29T09:08:25;4.53;;;3.38;;
14923;SDS011;7554;43.600;1.480;2023-07-29T09:10:53;3.80;;;2.90;;
14923;SDS011;7554;43.600;1.480;2023-07-29T09:13:21;2.95;;;2.70;;
14923;SDS011;7554;43.600;1.480;2023-07-29T09:15:48;5.28;;;2.90;;
14923;SDS011;7554;43.600;1.480;2023-07-29T09:18:16;3.83;;;2.92;;
14923;SDS011;7554;43.600;1.480;2023-07-29T09:20:45;6.63;;;3.00;;
14923;SDS011;7554;43.600;1.480;2023-07-29T09:23:14;3.85;;;2.85;;
14923;SDS011;7554;43.600;1.480;2023-07-29T09:25:43;3.08;;;2.53;;
14923;SDS011;7554;43.600;1.480;2023-07-29T09:28:14;4.00;;;2.75;;
14923;SDS011;7554;43.600;1.480;2023-07-29T09:30:42;3.10;;;2.80;;
14923;SDS011;7554;43.600;1.480;2023-07-29T09:33:11;3.83;;;2.70;;
14923;SDS011;7554;43.600;1.480;2023-07-29T09:35:39;3.53;;;2.85;;
14923;SDS011;7554;43.600;1.480;2023-07-29T09:38:06;3.50;;;2.90;;
14923;SDS011;7554;43.600;1.480;2023-07-29T09:40:35;4.57;;;2.83;;
14923;SDS011;7554;43.600;1.480;2023-07-29T09:43:05;3.25;;;2.72;;
14923;SDS011;7554;43.600;1.480;2023-07-29T09:45:35;4.30;;;2.72;;
14923;SDS011;7554;43.600;1.480;2023-07-29T09:48:04;2.85;;;2.60;;
14923;SDS011;7554;43.600;1.480;2023-07-29T09:50:35;4.03;;;3.10;;
14923;SDS011;7554;43.600;1.480;2023-07-29T09:53:02;3.15;;;2.72;;
14923;SDS011;7554;43.600;1.480;2023-07-29T09:55:32;3.05;;;2.75;;
14923;SDS011;7554;43.600;1.480;2023-07-29T09:58:00;4.28;;;3.03;;
14923;SDS011;7554;43.600;1.480;2023-07-29T10:00:33;2.95;;;2.65;;
14923;SDS011;7554;43.600;1.480;2023-07-29T10:03:03;4.00;;;3.03;;
14923;SDS011;7554;43.600;1.480;2023-07-29T10:05:32;4.82;;;2.90;;
14923;SDS011;7554;43.600;1.480;2023-07-29T10:08:00;5.82;;;3.45;;
14923;SDS011;7554;43.600;1.480;2023-07-29T10:10:29;3.92;;;3.03;;
14923;SDS011;7554;43.600;1.480;2023-07-29T10:12:57;3.20;;;2.85;;
14923;SDS011;7554;43.600;1.480;2023-07-29T10:15:24;3.67;;;3.00;;
14923;SDS011;7554;43.600;1.480;2023-07-29T10:17:54;3.90;;;2.80;;
14923;SDS011;7554;43.600;1.480;2023-07-29T10:20:22;4.78;;;2.95;;
14923;SDS011;7554;43.600;1.480;2023-07-29T10:22:49;4.22;;;2.67;;
14923;SDS011;7554;43.600;1.480;2023-07-29T10:25:22;3.65;;;3.08;;
14923;SDS011;7554;43.600;1.480;2023-07-29T10:27:52;6.35;;;3.45;;
14923;SDS011;7554;43.600;1.480;2023-07-29T10:30:23;4.53;;;3.17;;
14923;SDS011;7554;43.600;1.480;2023-07-29T10:32:51;5.93;;;3.38;;
14923;SDS011;7554;43.600;1.480;2023-07-29T10:35:22;4.30;;;3.00;;
14923;SDS011;7554;43.600;1.480;2023-07-29T10:37:50;5.97;;;3.72;;
14923;SDS011;7554;43.600;1.480;2023-07-29T10:40:18;5.13;;;3.13;;
14923;SDS011;7554;43.600;1.480;2023-07-29T10:42:59;4.20;;;3.05;;
14923;SDS011;7554;43.600;1.480;2023-07-29T10:45:36;4.40;;;3.10;;
14923;SDS011;7554;43.600;1.480;2023-07-29T10:48:06;7.45;;;2.90;;
14923;SDS011;7554;43.600;1.480;2023-07-29T10:50:36;3.58;;;3.15;;
14923;SDS011;7554;43.600;1.480;2023-07-29T10:53:04;3.28;;;2.60;;
14923;SDS011;7554;43.600;1.480;2023-07-29T10:55:32;4.28;;;2.95;;
14923;SDS011;7554;43.600;1.480;2023-07-29T10:58:08;3.90;;;3.17;;
14923;SDS011;7554;43.600;1.480;2023-07-29T11:00:39;4.22;;;3.00;;
14923;SDS011;7554;43.600;1.480;2023-07-29T11:03:10;3.30;;;3.00;;
14923;SDS011;7554;43.600;1.480;2023-07-29T11:05:43;4.00;;;3.20;;
14923;SDS011;7554;43.600;1.480;2023-07-29T11:08:19;3.05;;;2.60;;
14923;SDS011;7554;43.600;1.480;2023-07-29T11:11:01;3.83;;;3.25;;
14923;SDS011;7554;43.600;1.480;2023-07-29T11:13:30;5.47;;;3.10;;
14923;SDS011;7554;43.600;1.480;2023-07-29T11:15:59;4.00;;;3.30;;
14923;SDS011;7554;43.600;1.480;2023-07-29T11:18:29;3.40;;;2.80;;
14923;SDS011;7554;43.600;1.480;2023-07-29T11:20:57;3.15;;;2.78;;
14923;SDS011;7554;43.600;1.480;2023-07-29T11:23:31;4.30;;;2.72;;
14923;SDS011;7554;43.600;1.480;2023-07-29T11:26:00;5.75;;;3.13;;
14923;SDS011;7554;43.600;1.480;2023-07-29T11:28:28;6.05;;;3.28;;
14923;SDS011;7554;43.600;1.480;2023-07-29T11:30:56;6.05;;;3.33;;
14923;SDS011;7554;43.600;1.480;2023-07-29T11:33:25;4.47;;;3.00;;
14923;SDS011;7554;43.600;1.480;2023-07-29T11:35:55;4.63;;;2.92;;
14923;SDS011;7554;43.600;1.480;2023-07-29T11:38:23;5.13;;;3.17;;
14923;SDS011;7554;43.600;1.480;2023-07-29T11:40:53;3.83;;;3.05;;
14923;SDS011;7554;43.600;1.480;2023-07-29T11:43:25;4.65;;;3.08;;
14923;SDS011;7554;43.600;1.480;2023-07-29T11:45:53;2.92;;;2.63;;
14923;SDS011;7554;43.600;1.480;2023-07-29T11:48:27;3.00;;;2.72;;
14923;SDS011;7554;43.600;1.480;2023-07-29T11:50:56;4.50;;;3.55;;
14923;SDS011;7554;43.600;1.480;2023-07-29T11:53:25;3.30;;;3.00;;
14923;SDS011;7554;43.600;1.480;2023-07-29T11:55:55;5.05;;;3.17;;
14923;SDS011;7554;43.600;1.480;2023-07-29T11:58:22;4.20;;;3.20;;
14923;SDS011;7554;43.600;1.480;2023-07-29T12:00:50;4.85;;;3.30;;
14923;SDS011;7554;43.600;1.480;2023-07-29T12:03:18;5.65;;;4.43;;
14923;SDS011;7554;43.600;1.480;2023-07-29T12:05:46;14.02;;;11.48;;
14923;SDS011;7554;43.600;1.480;2023-07-29T12:08:15;4.10;;;3.00;;
14923;SDS011;7554;43.600;1.480;2023-07-29T12:10:42;3.88;;;3.17;;
14923;SDS011;7554;43.600;1.480;2023-07-29T12:13:10;3.30;;;3.00;;
14923;SDS011;7554;43.600;1.480;2023-07-29T12:15:38;5.15;;;3.40;;
14923;SDS011;7554;43.600;1.480;2023-07-29T12:18:06;4.88;;;3.20;;
14923;SDS011;7554;43.600;1.480;2023-07-29T12:20:33;3.80;;;3.40;;
14923;SDS011;7554;43.600;1.480;2023-07-29T12:23:00;5.47;;;3.20;;
14923;SDS011;7554;43.600;1.480;2023-07-29T12:25:31;4.35;;;3.50;;
14923;SDS011;7554;43.600;1.480;2023-07-29T12:28:02;3.83;;;3.08;;
14923;SDS011;7554;43.600;1.480;2023-07-29T12:30:31;4.97;;;3.33;;
14923;SDS011;7554;43.600;1.480;2023-07-29T12:32:59;5.20;;;3.33;;
14923;SDS011;7554;43.600;1.480;2023-07-29T12:35:33;4.72;;;3.53;;
14923;SDS011;7554;43.600;1.480;2023-07-29T12:38:04;5.13;;;3.28;;
14923;SDS011;7554;43.600;1.480;2023-07-29T12:40:37;4.03;;;3.30;;
14923;SDS011;7554;43.600;1.480;2023-07-29T12:43:05;3.75;;;3.20;;
14923;SDS011;7554;43.600;1.480;2023-07-29T12:45:35;5.18;;;3.63;;
14923;SDS011;7554;43.600;1.480;2023-07-29T12:48:05;3.92;;;3.53;;
14923;SDS011;7554;43.600;1.480;2023-07-29T12:50:32;3.45;;;3.10;;
14923;SDS011;7554;43.600;1.480;2023-07-29T12:52:59;4.53;;;3.78;;
14923;SDS011;7554;43.600;1.480;2023-07-29T12:55:27;5.93;;;3.70;;
14923;SDS011;7554;43.600;1.480;2023-07-29T12:57:55;3.97;;;3.58;;
14923;SDS011;7554;43.600;1.480;2023-07-29T13:00:24;5.90;;;3.80;;
14923;SDS011;7554;43.600;1.480;2023-07-29T13:02:51;5.50;;;3.78;;
14923;SDS011;7554;43.600;1.480;2023-07-29T13:05:19;8.07;;;3.92;;
14923;SDS011;7554;43.600;1.480;2023-07-29T13:07:47;7.35;;;3.40;;
14923;SDS011;7554;43.600;1.480;2023-07-29T13:10:14;3.90;;;3.05;;
14923;SDS011;7554;43.600;1.480;2023-07-29T13:12:41;6.30;;;3.47;;
14923;SDS011;7554;43.600;1.480;2023-07-29T13:15:11;4.55;;;3.40;;
14923;SDS011;7554;43.600;1.480;2023-07-29T13:17:38;5.78;;;3.40;;
14923;SDS011;7554;43.600;1.480;2023-07-29T13:20:06;3.88;;;3.25;;
14923;SDS011;7554;43.600;1.480;2023-07-29T13:22:34;3.40;;;2.78;;
14923;SDS011;7554;43.600;1.480;2023-07-29T13:25:02;3.70;;;3.40;;
14923;SDS011;7554;43.600;1.480;2023-07-29T13:27:30;4.65;;;3.53;;
14923;SDS011;7554;43.600;1.480;2023-07-29T13:29:57;4.47;;;3.10;;
14923;SDS011;7554;43.600;1.480;2023-07-29T13:32:26;3.33;;;3.00;;
14923;SDS011;7554;43.600;1.480;2023-07-29T13:34:53;7.63;;;3.25;;
14923;SDS011;7554;43.600;1.480;2023-07-29T13:37:21;4.00;;;3.03;;
14923;SDS011;7554;43.600;1.480;2023-07-29T13:39:48;4.43;;;3.13;;
14923;SDS011;7554;43.600;1.480;2023-07-29T13:42:15;6.40;;;2.90;;
14923;SDS011;7554;43.600;1.480;2023-07-29T13:44:42;7.75;;;3.00;;
14923;SDS011;7554;43.600;1.480;2023-07-29T13:47:10;4.70;;;3.55;;
14923;SDS011;7554;43.600;1.480;2023-07-29T13:49:38;6.55;;;3.13;;
14923;SDS011;7554;43.600;1.480;2023-07-29T13:52:06;4.15;;;2.92;;
14923;SDS011;7554;43.600;1.480;2023-07-29T13:54:33;3.22;;;2.80;;
14923;SDS011;7554;43.600;1.480;2023-07-29T13:57:01;7.20;;;3.40;;
14923;SDS011;7554;43.600;1.480;2023-07-29T13:59:28;5.90;;;3.60;;
14923;SDS011;7554;43.600;1.480;2023-07-29T14:01:55;4.25;;;3.00;;
14923;SDS011;7554;43.600;1.480;2023-07-29T14:04:23;4.13;;;2.95;;
14923;SDS011;7554;43.600;1.480;2023-07-29T14:06:51;4.18;;;3.13;;
14923;SDS011;7554;43.600;1.480;2023-07-29T14:09:19;5.78;;;3.55;;
14923;SDS011;7554;43.600;1.480;2023-07-29T14:11:46;6.22;;;3.20;;
14923;SDS011;7554;43.600;1.480;2023-07-29T14:14:13;3.83;;;3.08;;
14923;SDS011;7554;43.600;1.480;2023-07-29T14:16:41;3.42;;;2.53;;
14923;SDS011;7554;43.600;1.480;2023-07-29T14:19:08;4.68;;;3.20;;
14923;SDS011;7554;43.600;1.480;2023-07-29T14:21:36;4.18;;;3.35;;
14923;SDS011;7554;43.600;1.480;2023-07-29T14:24:05;4.25;;;3.10;;
14923;SDS011;7554;43.600;1.480;2023-07-29T14:26:32;4.45;;;2.88;;
14923;SDS011;7554;43.600;1.480;2023-07-29T14:29:00;7.20;;;3.42;;
14923;SDS011;7554;43.600;1.480;2023-07-29T14:31:27;5.25;;;3.28;;
14923;SDS011;7554;43.600;1.480;2023-07-29T14:33:54;4.00;;;3.60;;
14923;SDS011;7554;43.600;1.480;2023-07-29T14:36:22;4.93;;;3.30;;
14923;SDS011;7554;43.600;1.480;2023-07-29T14:38:49;6.50;;;3.65;;
14923;SDS011;7554;43.600;1.480;2023-07-29T14:41:18;8.65;;;3.28;;
14923;SDS011;7554;43.600;1.480;2023-07-29T14:43:45;6.07;;;4.10;;
14923;SDS011;7554;43.600;1.480;2023-07-29T14:46:12;3.13;;;2.90;;
14923;SDS011;7554;43.600;1.480;2023-07-29T14:48:40;4.68;;;3.60;;
14923;SDS011;7554;43.600;1.480;2023-07-29T14:51:07;4.25;;;3.53;;
14923;SDS011;7554;43.600;1.480;2023-07-29T14:53:34;7.03;;;3.72;;
14923;SDS011;7554;43.600;1.480;2023-07-29T14:56:02;4.45;;;3.20;;
14923;SDS011;7554;43.600;1.480;2023-07-29T14:58:30;7.65;;;3.90;;
14923;SDS011;7554;43.600;1.480;2023-07-29T15:00:58;6.50;;;3.63;;
14923;SDS011;7554;43.600;1.480;2023-07-29T15:03:25;6.35;;;3.55;;
14923;SDS011;7554;43.600;1.480;2023-07-29T15:05:52;4.72;;;3.38;;
14923;SDS011;7554;43.600;1.480;2023-07-29T15:08:20;4.85;;;3.42;;